Orbital elements of RUBIN-2 & SAFIR-M
| Launched | 19 December 2002 |
| Flight ended | – |
| Launch site | Tyuratam Missile and Space Center, Kazakhstan (Also known as Baikonur Cosmodrome) |
| Owner | Germany |
| NORAD ID | 27605 |
| Alternative names |
AO-49 |
| Date fetched |
Epoch osculation |
Inc. [°] |
Ecc. | RA asc node [hr] |
Arg Peri. [°] |
Mean anom [°] |
Mean motion [rev/day] |
Abs. mag |
| Date fetched |
Epoch osculation |
Inc. [°] |
Ecc. | RA asc node [hr] |
Arg Peri. [°] |
Mean anom [°] |
Mean motion [rev/day] |
Abs. mag |
| 2026 May 08 17:57 | 2026 May 05 08:13:59 | 64.5536 | 0.00791 | 17.4870 | 271.0534 | 88.1503 | 14.79397 | 9.243 |
| 2026 May 07 17:58 | 2026 May 05 08:13:59 | 64.5536 | 0.00791 | 17.4870 | 271.0534 | 88.1503 | 14.79397 | 9.243 |
| 2026 May 06 17:57 | 2026 May 05 08:13:59 | 64.5536 | 0.00791 | 17.4870 | 271.0534 | 88.1503 | 14.79397 | 9.243 |
| 2026 May 05 17:57 | 2026 May 05 08:13:59 | 64.5536 | 0.00791 | 17.4870 | 271.0534 | 88.1503 | 14.79397 | 9.243 |
| 2026 May 04 17:57 | 2026 Apr 30 14:40:01 | 64.5531 | 0.00792 | 18.4574 | 271.9220 | 88.1503 | 14.79397 | 9.243 |
| 2026 May 03 17:57 | 2026 Apr 30 14:40:01 | 64.5531 | 0.00792 | 18.4574 | 271.9220 | 88.1503 | 14.79397 | 9.243 |
| 2026 May 02 17:57 | 2026 Apr 30 14:40:01 | 64.5531 | 0.00792 | 18.4574 | 271.9220 | 88.1503 | 14.79397 | 9.243 |
| 2026 May 01 17:56 | 2026 Apr 30 14:40:01 | 64.5531 | 0.00792 | 18.4574 | 271.9220 | 88.1503 | 14.79397 | 9.243 |
| 2026 Apr 30 17:56 | 2026 Apr 30 14:40:01 | 64.5531 | 0.00792 | 18.4574 | 271.9220 | 88.1503 | 14.79397 | 9.243 |
| 2026 Apr 29 17:57 | 2026 Apr 23 15:33:41 | 64.5529 | 0.00791 | 19.8854 | 273.2245 | 88.1503 | 14.79397 | 9.243 |
| 2026 Apr 28 17:56 | 2026 Apr 23 15:33:41 | 64.5529 | 0.00791 | 19.8854 | 273.2245 | 88.1503 | 14.79397 | 9.243 |
| 2026 Apr 27 17:58 | 2026 Apr 23 15:33:41 | 64.5529 | 0.00791 | 19.8854 | 273.2245 | 88.1503 | 14.79397 | 9.243 |
| 2026 Apr 26 17:58 | 2026 Apr 23 15:33:41 | 64.5529 | 0.00791 | 19.8854 | 273.2245 | 88.1503 | 14.79397 | 9.243 |
| 2026 Apr 25 17:58 | 2026 Apr 23 15:33:41 | 64.5529 | 0.00791 | 19.8854 | 273.2245 | 88.1503 | 14.79397 | 9.243 |
| 2026 Apr 24 17:59 | 2026 Apr 23 15:33:41 | 64.5529 | 0.00791 | 19.8854 | 273.2245 | 88.1503 | 14.79397 | 9.243 |
| 2026 Apr 23 17:57 | 2026 Apr 18 23:36:59 | 64.5534 | 0.00791 | 20.8419 | 274.0978 | 88.1503 | 14.79397 | 9.243 |
| 2026 Apr 22 17:57 | 2026 Apr 18 23:36:59 | 64.5534 | 0.00791 | 20.8419 | 274.0978 | 88.1503 | 14.79397 | 9.243 |
| 2026 Apr 21 17:57 | 2026 Apr 18 23:36:59 | 64.5534 | 0.00791 | 20.8419 | 274.0978 | 88.1503 | 14.79397 | 9.243 |
| 2026 Apr 20 17:57 | 2026 Apr 18 23:36:59 | 64.5534 | 0.00791 | 20.8419 | 274.0978 | 88.1503 | 14.79397 | 9.243 |
| 2026 Apr 19 17:58 | 2026 Apr 18 23:36:59 | 64.5534 | 0.00791 | 20.8419 | 274.0978 | 88.1503 | 14.79397 | 9.243 |
| 2026 Apr 18 17:56 | 2026 Apr 13 02:28:05 | 64.5543 | 0.00790 | 22.0480 | 275.1988 | 88.1503 | 14.79397 | 9.243 |
| 2026 Apr 16 17:57 | 2026 Apr 13 02:28:05 | 64.5543 | 0.00790 | 22.0480 | 275.1988 | 88.1503 | 14.79397 | 9.243 |
| 2026 Apr 14 17:57 | 2026 Apr 13 02:28:05 | 64.5543 | 0.00790 | 22.0480 | 275.1988 | 88.1503 | 14.79397 | 9.243 |
| 2026 Apr 13 17:57 | 2026 Apr 13 02:28:05 | 64.5543 | 0.00790 | 22.0480 | 275.1988 | 88.1503 | 14.79397 | 9.243 |
| 2026 Apr 12 17:57 | 2026 Apr 08 02:24:37 | 64.5553 | 0.00790 | 23.0738 | 276.1298 | 88.1503 | 14.79397 | 9.243 |
| 2026 Apr 11 17:57 | 2026 Apr 08 02:24:37 | 64.5553 | 0.00790 | 23.0738 | 276.1298 | 88.1503 | 14.79397 | 9.243 |